Ana Sayfa
METAR-TAF:

METAR-TAF

Havaalanları :

Danville, Virginia, Amerika Birleşik Devletleri

Enlem: 36-34-22N, Boylam: 079-20-10W, yükseklik: 174 m

Güncel hava durumu gözlemi

Rapor saat 02:53 UTC de 30 dakika önce yapıldı.
Sakin rüzgar
Sıcaklık 26°C
Nem 84%
Basınç 1016 hPa
Görüş mesafesi: 16.1 km
Açık gökyüzü

METAR: KDAN 200253Z AUTO 00000KT 10SM CLR 26/23 A2999 RMK AO2 SLP144 T02610228 53011

Saat: 23:23 (03:23 UTC)

Tahmin

Rapor saat 23:53 UTC de 3 saat ve 30 dakika önce yapıldı.
Ayın 20'si saat 00 UTC'den ayın 20'si saat 24 UTC'ye kadar geçerli Tahmin
Rüzgar batı/güneybatıdan 4 kt
Görüş mesafesi: 10 km
Açık gökyüzü
Ayın 20'si saat 0800 UTC'den
Rüzgar kuzeydan kt
Görüş mesafesi: 8.0 km
Açık gökyüzü
Pus
Ayın 20'si saat 1500 UTC'den
Rüzgar batı/güneybatıdan 7 kt
Görüş mesafesi: 10 km
6000 ft yükseklikte parçalı bulutlu

TAF: KDAN 192353Z 2000/2024 25004KT P6SM SKC FM200800 00000KT 5SM BR SKC FM201500 24007KT P6SM SCT060

4.000'den fazla havaalanı için hava durumu gözlemleri ve tahminleri (METAR ve TAF raporları).

Kullanılabilir istasyonlar harita üzerinde sarı ve kırmızı noktalarla gösterilir.

İstasyonun adını görmek için fareyi noktanın üzerinde gezdirin.

Sonrasında hava gözlem ve tahminlerini görmek için tıklayın.

Haritayı değiştirmek için: yaklaştırmak için siyah artı işaretli yeşil düğmeye ve uzaklaştırmak için de eksi işaretli düğmeye hızla tıklayın; bitişik haritalar için yeşil okları kullanın.


METAR-TAF: